Sn. Cristobal Las Casas /, Mexico

8:26 AM CST on February 22, 2017 (GMT -0600)
Barrio Cerrillo | | Change Station

Elev 7120 ft 16.75 °N, 92.63 °W | Updated 9 seconds ago

Partly Cloudy
Partly Cloudy
50.7 °F
Feels Like 50.7 °F
N
1.1
Wind Variable Wind from East
Gusts 2.5 mph

Today
High -- | Low -- °F
--% Chance of Precip.
Yesterday
High -- | Low -- °F
Precip. -- in
Pressure 30.06 in
Visibility 6.0 miles
Clouds Scattered Clouds 1800 ft
Mostly Cloudy 7000 ft
Dew Point 49 °F
Humidity 93%
Rainfall 0.00 in
Snow Depth Not available.
6:32 AM 6:15 PM
Waning Crescent, 17% visible
METAR MMTG 221343Z 27006KT 6SM SCT018 BKN070 19/14 A3006 RMK 8/620 ST OVR MT BR HZ ARND
Pressure 30.06 in
Visibility 6.0 miles
Clouds Scattered Clouds 1800 ft
Mostly Cloudy 7000 ft
Dew Point 49 °F
Humidity 93%
Rainfall 0.00 in
Snow Depth Not available.
6:32 AM 6:15 PM
Waning Crescent, 17% visible
METAR MMTG 221343Z 27006KT 6SM SCT018 BKN070 19/14 A3006 RMK 8/620 ST OVR MT BR HZ ARND

Get Your Daily Forecast Email!

Thanks for signing up!

Be on the lookout for a verification email in your inbox.

You'll start receiving the daily forecast at 8 AM.

×

10-Day Weather Forecast

No radar image for this location.
×

Almanac

Astronomy

Feb. 22, 2017 Rise Set
Actual Time
Civil Twilight
Nautical Twilight
Astronomical Twilight
Moon
Length of Visible Light
Length of Day
Tomorrow will be .
, % of the Moon is Illuminated

Today's Extremes

Country Highs Country Lows

Community

WunderPhotos

Upload Photos

1,962,540 photos uploaded!

WunderBlog® & News

Nearby

Air Quality

  Air Quality AQ Index Pollutant
Not available.

Snow Depth

Station Depth Elevation

Earthquake Activity

City Distance Mag. Time & Date
Minimum magnitude displayed is 2.5.

Coastal Water Temperatures

Place Temperature

Stations

Nearby Weather Stations

Station Location Temp. Windchill Dew Point Humidity Wind Precip. Elev Updated Type